sensor_id;sensor_type;location;lat;lon;timestamp;P1;durP1;ratioP1;P2;durP2;ratioP2
76433;SDS011;65265;53.200;6.080;2023-07-29T00:04:38;7.13;;;4.43;;
76433;SDS011;65265;53.200;6.080;2023-07-29T00:09:30;8.18;;;4.20;;
76433;SDS011;65265;53.200;6.080;2023-07-29T00:14:23;7.25;;;4.20;;
76433;SDS011;65265;53.200;6.080;2023-07-29T00:19:14;6.43;;;3.85;;
76433;SDS011;65265;53.200;6.080;2023-07-29T00:24:06;6.82;;;3.88;;
76433;SDS011;65265;53.200;6.080;2023-07-29T00:28:57;9.13;;;5.20;;
76433;SDS011;65265;53.200;6.080;2023-07-29T00:33:50;6.70;;;4.45;;
76433;SDS011;65265;53.200;6.080;2023-07-29T00:38:42;8.13;;;4.60;;
76433;SDS011;65265;53.200;6.080;2023-07-29T00:43:34;6.90;;;3.55;;
76433;SDS011;65265;53.200;6.080;2023-07-29T00:48:25;7.13;;;4.00;;
76433;SDS011;65265;53.200;6.080;2023-07-29T00:53:19;7.30;;;4.10;;
76433;SDS011;65265;53.200;6.080;2023-07-29T00:58:10;6.32;;;3.78;;
76433;SDS011;65265;53.200;6.080;2023-07-29T01:03:01;7.32;;;4.72;;
76433;SDS011;65265;53.200;6.080;2023-07-29T01:07:55;8.73;;;5.45;;
76433;SDS011;65265;53.200;6.080;2023-07-29T01:12:54;11.73;;;6.03;;
76433;SDS011;65265;53.200;6.080;2023-07-29T01:17:54;8.90;;;5.22;;
76433;SDS011;65265;53.200;6.080;2023-07-29T01:22:47;10.55;;;7.30;;
76433;SDS011;65265;53.200;6.080;2023-07-29T01:32:34;10.85;;;6.32;;
76433;SDS011;65265;53.200;6.080;2023-07-29T01:37:30;12.93;;;8.15;;
76433;SDS011;65265;53.200;6.080;2023-07-29T01:42:25;13.38;;;8.90;;
76433;SDS011;65265;53.200;6.080;2023-07-29T01:47:18;13.50;;;7.28;;
76433;SDS011;65265;53.200;6.080;2023-07-29T01:52:09;10.57;;;7.43;;
76433;SDS011;65265;53.200;6.080;2023-07-29T01:57:01;12.48;;;8.65;;
76433;SDS011;65265;53.200;6.080;2023-07-29T02:01:53;13.73;;;7.75;;
76433;SDS011;65265;53.200;6.080;2023-07-29T02:06:46;11.43;;;7.07;;
76433;SDS011;65265;53.200;6.080;2023-07-29T02:11:37;12.02;;;8.35;;
76433;SDS011;65265;53.200;6.080;2023-07-29T02:16:29;12.25;;;6.88;;
76433;SDS011;65265;53.200;6.080;2023-07-29T02:21:20;10.80;;;7.47;;
76433;SDS011;65265;53.200;6.080;2023-07-29T02:26:13;10.30;;;7.15;;
76433;SDS011;65265;53.200;6.080;2023-07-29T02:31:14;11.25;;;7.28;;
76433;SDS011;65265;53.200;6.080;2023-07-29T02:36:06;11.15;;;7.55;;
76433;SDS011;65265;53.200;6.080;2023-07-29T02:40:58;11.82;;;7.60;;
76433;SDS011;65265;53.200;6.080;2023-07-29T02:45:51;11.43;;;6.95;;
76433;SDS011;65265;53.200;6.080;2023-07-29T02:50:42;11.32;;;7.05;;
76433;SDS011;65265;53.200;6.080;2023-07-29T02:55:34;10.38;;;6.10;;
76433;SDS011;65265;53.200;6.080;2023-07-29T03:00:26;9.10;;;6.00;;
76433;SDS011;65265;53.200;6.080;2023-07-29T03:05:19;11.82;;;5.40;;
76433;SDS011;65265;53.200;6.080;2023-07-29T03:10:10;9.75;;;5.30;;
76433;SDS011;65265;53.200;6.080;2023-07-29T03:15:02;8.90;;;5.13;;
76433;SDS011;65265;53.200;6.080;2023-07-29T03:24:47;8.50;;;4.03;;
76433;SDS011;65265;53.200;6.080;2023-07-29T03:29:38;6.65;;;3.30;;
76433;SDS011;65265;53.200;6.080;2023-07-29T03:34:29;11.30;;;4.03;;
76433;SDS011;65265;53.200;6.080;2023-07-29T03:39:22;7.47;;;4.32;;
76433;SDS011;65265;53.200;6.080;2023-07-29T03:44:14;5.32;;;3.03;;
76433;SDS011;65265;53.200;6.080;2023-07-29T03:49:07;6.50;;;2.75;;
76433;SDS011;65265;53.200;6.080;2023-07-29T03:53:58;4.45;;;2.08;;
76433;SDS011;65265;53.200;6.080;2023-07-29T03:58:50;5.25;;;2.00;;
76433;SDS011;65265;53.200;6.080;2023-07-29T04:03:44;3.65;;;1.88;;
76433;SDS011;65265;53.200;6.080;2023-07-29T04:08:36;4.30;;;1.75;;
76433;SDS011;65265;53.200;6.080;2023-07-29T04:13:27;5.60;;;2.45;;
76433;SDS011;65265;53.200;6.080;2023-07-29T04:18:18;5.32;;;1.65;;
76433;SDS011;65265;53.200;6.080;2023-07-29T04:23:11;3.53;;;1.90;;
76433;SDS011;65265;53.200;6.080;2023-07-29T04:28:03;3.78;;;1.48;;
76433;SDS011;65265;53.200;6.080;2023-07-29T04:32:55;4.07;;;2.17;;
76433;SDS011;65265;53.200;6.080;2023-07-29T04:37:48;6.80;;;1.98;;
76433;SDS011;65265;53.200;6.080;2023-07-29T04:42:41;6.95;;;2.33;;
76433;SDS011;65265;53.200;6.080;2023-07-29T04:47:32;4.07;;;1.92;;
76433;SDS011;65265;53.200;6.080;2023-07-29T04:52:24;3.85;;;1.00;;
76433;SDS011;65265;53.200;6.080;2023-07-29T04:57:15;5.65;;;1.67;;
76433;SDS011;65265;53.200;6.080;2023-07-29T05:02:08;5.95;;;2.63;;
76433;SDS011;65265;53.200;6.080;2023-07-29T05:06:59;3.22;;;1.65;;
76433;SDS011;65265;53.200;6.080;2023-07-29T05:11:51;4.88;;;1.95;;
76433;SDS011;65265;53.200;6.080;2023-07-29T05:16:42;5.03;;;1.75;;
76433;SDS011;65265;53.200;6.080;2023-07-29T05:21:36;6.35;;;1.85;;
76433;SDS011;65265;53.200;6.080;2023-07-29T05:26:28;5.00;;;1.67;;
76433;SDS011;65265;53.200;6.080;2023-07-29T05:31:19;4.82;;;1.48;;
76433;SDS011;65265;53.200;6.080;2023-07-29T05:36:10;3.92;;;1.27;;
76433;SDS011;65265;53.200;6.080;2023-07-29T05:41:03;6.72;;;2.17;;
76433;SDS011;65265;53.200;6.080;2023-07-29T05:45:55;5.88;;;1.25;;
76433;SDS011;65265;53.200;6.080;2023-07-29T05:50:46;5.25;;;1.92;;
76433;SDS011;65265;53.200;6.080;2023-07-29T05:55:38;6.80;;;1.90;;
76433;SDS011;65265;53.200;6.080;2023-07-29T06:00:30;6.03;;;1.65;;
76433;SDS011;65265;53.200;6.080;2023-07-29T06:05:22;9.70;;;2.05;;
76433;SDS011;65265;53.200;6.080;2023-07-29T06:10:14;4.88;;;1.58;;
76433;SDS011;65265;53.200;6.080;2023-07-29T06:15:08;5.47;;;1.48;;
76433;SDS011;65265;53.200;6.080;2023-07-29T06:20:02;4.40;;;1.95;;
76433;SDS011;65265;53.200;6.080;2023-07-29T06:24:54;6.25;;;1.85;;
76433;SDS011;65265;53.200;6.080;2023-07-29T06:29:45;6.63;;;1.58;;
76433;SDS011;65265;53.200;6.080;2023-07-29T06:34:37;4.22;;;1.30;;
76433;SDS011;65265;53.200;6.080;2023-07-29T06:39:30;7.90;;;1.42;;
76433;SDS011;65265;53.200;6.080;2023-07-29T06:44:21;8.70;;;1.63;;
76433;SDS011;65265;53.200;6.080;2023-07-29T06:49:13;6.75;;;1.63;;
76433;SDS011;65265;53.200;6.080;2023-07-29T06:54:04;8.18;;;1.80;;
76433;SDS011;65265;53.200;6.080;2023-07-29T06:58:57;4.70;;;1.40;;
76433;SDS011;65265;53.200;6.080;2023-07-29T07:03:49;8.30;;;2.05;;
76433;SDS011;65265;53.200;6.080;2023-07-29T07:08:44;6.68;;;1.45;;
76433;SDS011;65265;53.200;6.080;2023-07-29T07:13:35;6.95;;;1.00;;
76433;SDS011;65265;53.200;6.080;2023-07-29T07:18:28;4.88;;;1.33;;
76433;SDS011;65265;53.200;6.080;2023-07-29T07:23:20;4.40;;;1.55;;
76433;SDS011;65265;53.200;6.080;2023-07-29T07:28:11;8.90;;;2.33;;
76433;SDS011;65265;53.200;6.080;2023-07-29T07:33:02;4.53;;;1.40;;
76433;SDS011;65265;53.200;6.080;2023-07-29T07:37:55;7.20;;;2.00;;
76433;SDS011;65265;53.200;6.080;2023-07-29T07:42:48;5.95;;;1.50;;
76433;SDS011;65265;53.200;6.080;2023-07-29T07:47:40;6.18;;;1.80;;
76433;SDS011;65265;53.200;6.080;2023-07-29T07:52:31;4.88;;;1.23;;
76433;SDS011;65265;53.200;6.080;2023-07-29T07:57:24;2.20;;;1.20;;
76433;SDS011;65265;53.200;6.080;2023-07-29T08:02:16;4.32;;;1.17;;
76433;SDS011;65265;53.200;6.080;2023-07-29T08:07:07;8.05;;;1.58;;
76433;SDS011;65265;53.200;6.080;2023-07-29T08:11:58;3.60;;;1.15;;
76433;SDS011;65265;53.200;6.080;2023-07-29T08:16:51;5.03;;;1.48;;
76433;SDS011;65265;53.200;6.080;2023-07-29T08:21:43;4.47;;;0.75;;
76433;SDS011;65265;53.200;6.080;2023-07-29T08:26:34;4.03;;;1.20;;
76433;SDS011;65265;53.200;6.080;2023-07-29T08:31:25;2.92;;;1.05;;
76433;SDS011;65265;53.200;6.080;2023-07-29T08:36:19;4.55;;;0.73;;
76433;SDS011;65265;53.200;6.080;2023-07-29T08:41:10;4.22;;;0.65;;
76433;SDS011;65265;53.200;6.080;2023-07-29T08:46:05;3.80;;;0.57;;
76433;SDS011;65265;53.200;6.080;2023-07-29T08:50:57;5.75;;;0.85;;
76433;SDS011;65265;53.200;6.080;2023-07-29T08:55:52;7.10;;;1.02;;
76433;SDS011;65265;53.200;6.080;2023-07-29T09:00:45;2.97;;;0.40;;
76433;SDS011;65265;53.200;6.080;2023-07-29T09:05:37;3.97;;;0.55;;
76433;SDS011;65265;53.200;6.080;2023-07-29T09:10:29;2.15;;;0.50;;
76433;SDS011;65265;53.200;6.080;2023-07-29T09:15:27;4.45;;;0.77;;
76433;SDS011;65265;53.200;6.080;2023-07-29T09:20:23;4.53;;;0.40;;
76433;SDS011;65265;53.200;6.080;2023-07-29T09:25:15;5.45;;;1.15;;
76433;SDS011;65265;53.200;6.080;2023-07-29T09:30:07;1.70;;;0.20;;
76433;SDS011;65265;53.200;6.080;2023-07-29T09:35:10;5.03;;;0.70;;
76433;SDS011;65265;53.200;6.080;2023-07-29T09:40:03;3.22;;;0.52;;
76433;SDS011;65265;53.200;6.080;2023-07-29T09:44:55;4.78;;;0.65;;
76433;SDS011;65265;53.200;6.080;2023-07-29T09:49:47;5.05;;;0.70;;
76433;SDS011;65265;53.200;6.080;2023-07-29T09:54:40;7.07;;;0.40;;
76433;SDS011;65265;53.200;6.080;2023-07-29T09:59:33;3.47;;;0.98;;
76433;SDS011;65265;53.200;6.080;2023-07-29T10:04:25;3.40;;;0.65;;
76433;SDS011;65265;53.200;6.080;2023-07-29T10:09:17;2.95;;;0.57;;
76433;SDS011;65265;53.200;6.080;2023-07-29T10:14:13;2.33;;;0.20;;
76433;SDS011;65265;53.200;6.080;2023-07-29T10:19:05;2.40;;;0.20;;
76433;SDS011;65265;53.200;6.080;2023-07-29T10:23:59;2.55;;;0.32;;
76433;SDS011;65265;53.200;6.080;2023-07-29T10:28:54;2.70;;;0.90;;
76433;SDS011;65265;53.200;6.080;2023-07-29T10:33:52;3.58;;;0.35;;
76433;SDS011;65265;53.200;6.080;2023-07-29T10:38:45;2.60;;;0.73;;
76433;SDS011;65265;53.200;6.080;2023-07-29T10:43:36;3.30;;;0.90;;
76433;SDS011;65265;53.200;6.080;2023-07-29T10:48:39;3.90;;;0.65;;
76433;SDS011;65265;53.200;6.080;2023-07-29T10:53:33;3.40;;;0.65;;
76433;SDS011;65265;53.200;6.080;2023-07-29T10:58:24;4.05;;;0.77;;
76433;SDS011;65265;53.200;6.080;2023-07-29T11:03:16;2.17;;;0.30;;
76433;SDS011;65265;53.200;6.080;2023-07-29T11:08:15;5.45;;;0.45;;
76433;SDS011;65265;53.200;6.080;2023-07-29T11:13:11;1.00;;;0.40;;
76433;SDS011;65265;53.200;6.080;2023-07-29T11:18:03;3.40;;;0.80;;
76433;SDS011;65265;53.200;6.080;2023-07-29T11:22:59;3.75;;;0.43;;
76433;SDS011;65265;53.200;6.080;2023-07-29T11:27:51;3.88;;;0.90;;
76433;SDS011;65265;53.200;6.080;2023-07-29T11:32:45;2.03;;;0.32;;
76433;SDS011;65265;53.200;6.080;2023-07-29T11:37:38;5.32;;;1.15;;
76433;SDS011;65265;53.200;6.080;2023-07-29T11:42:31;2.22;;;0.60;;
76433;SDS011;65265;53.200;6.080;2023-07-29T11:47:23;2.20;;;0.82;;
76433;SDS011;65265;53.200;6.080;2023-07-29T11:52:16;2.40;;;0.52;;
76433;SDS011;65265;53.200;6.080;2023-07-29T11:57:09;3.40;;;0.93;;
76433;SDS011;65265;53.200;6.080;2023-07-29T12:02:00;2.17;;;0.60;;
76433;SDS011;65265;53.200;6.080;2023-07-29T12:06:52;3.85;;;0.77;;
76433;SDS011;65265;53.200;6.080;2023-07-29T12:11:45;4.68;;;1.05;;
76433;SDS011;65265;53.200;6.080;2023-07-29T12:16:40;3.38;;;0.98;;
76433;SDS011;65265;53.200;6.080;2023-07-29T12:21:32;2.58;;;0.70;;
76433;SDS011;65265;53.200;6.080;2023-07-29T12:26:26;3.55;;;0.70;;
76433;SDS011;65265;53.200;6.080;2023-07-29T12:31:20;1.67;;;0.50;;
76433;SDS011;65265;53.200;6.080;2023-07-29T12:36:12;4.20;;;0.50;;
76433;SDS011;65265;53.200;6.080;2023-07-29T12:41:03;3.30;;;0.60;;
76433;SDS011;65265;53.200;6.080;2023-07-29T12:45:56;4.32;;;0.93;;
76433;SDS011;65265;53.200;6.080;2023-07-29T12:50:49;7.20;;;0.50;;
76433;SDS011;65265;53.200;6.080;2023-07-29T12:55:41;4.32;;;0.90;;
76433;SDS011;65265;53.200;6.080;2023-07-29T13:00:33;1.42;;;0.40;;
76433;SDS011;65265;53.200;6.080;2023-07-29T13:05:24;5.07;;;0.52;;
76433;SDS011;65265;53.200;6.080;2023-07-29T13:10:17;2.92;;;0.70;;
76433;SDS011;65265;53.200;6.080;2023-07-29T13:15:08;2.83;;;0.47;;
76433;SDS011;65265;53.200;6.080;2023-07-29T13:24:51;2.70;;;0.55;;
76433;SDS011;65265;53.200;6.080;2023-07-29T13:29:44;2.58;;;0.68;;
76433;SDS011;65265;53.200;6.080;2023-07-29T13:34:36;3.75;;;0.63;;
76433;SDS011;65265;53.200;6.080;2023-07-29T13:39:30;2.97;;;0.68;;
76433;SDS011;65265;53.200;6.080;2023-07-29T13:44:21;10.40;;;1.17;;
76433;SDS011;65265;53.200;6.080;2023-07-29T13:49:14;5.63;;;0.57;;
76433;SDS011;65265;53.200;6.080;2023-07-29T13:54:05;3.03;;;0.50;;
76433;SDS011;65265;53.200;6.080;2023-07-29T13:58:57;3.10;;;0.65;;
76433;SDS011;65265;53.200;6.080;2023-07-29T14:03:49;4.30;;;0.40;;
76433;SDS011;65265;53.200;6.080;2023-07-29T14:08:42;2.67;;;0.75;;
76433;SDS011;65265;53.200;6.080;2023-07-29T14:13:33;4.10;;;1.20;;
76433;SDS011;65265;53.200;6.080;2023-07-29T14:18:24;5.47;;;0.60;;
76433;SDS011;65265;53.200;6.080;2023-07-29T14:23:16;2.42;;;0.65;;
76433;SDS011;65265;53.200;6.080;2023-07-29T14:28:09;2.35;;;0.95;;
76433;SDS011;65265;53.200;6.080;2023-07-29T14:33:00;2.80;;;0.55;;
76433;SDS011;65265;53.200;6.080;2023-07-29T14:37:52;3.28;;;0.70;;
76433;SDS011;65265;53.200;6.080;2023-07-29T14:42:43;2.45;;;0.50;;
76433;SDS011;65265;53.200;6.080;2023-07-29T14:47:36;3.63;;;0.73;;
76433;SDS011;65265;53.200;6.080;2023-07-29T14:52:27;5.50;;;0.73;;
76433;SDS011;65265;53.200;6.080;2023-07-29T15:02:10;3.25;;;0.60;;
76433;SDS011;65265;53.200;6.080;2023-07-29T15:11:55;2.45;;;0.50;;
76433;SDS011;65265;53.200;6.080;2023-07-29T15:16:46;2.20;;;0.20;;
76433;SDS011;65265;53.200;6.080;2023-07-29T15:21:38;4.57;;;0.70;;
76433;SDS011;65265;53.200;6.080;2023-07-29T15:26:31;3.22;;;0.38;;
76433;SDS011;65265;53.200;6.080;2023-07-29T15:31:22;2.63;;;0.13;;
76433;SDS011;65265;53.200;6.080;2023-07-29T15:36:13;2.30;;;0.47;;
76433;SDS011;65265;53.200;6.080;2023-07-29T15:41:05;2.50;;;0.60;;
76433;SDS011;65265;53.200;6.080;2023-07-29T15:45:58;5.72;;;0.50;;
76433;SDS011;65265;53.200;6.080;2023-07-29T15:50:49;5.65;;;0.65;;
76433;SDS011;65265;53.200;6.080;2023-07-29T15:55:41;1.55;;;0.40;;
76433;SDS011;65265;53.200;6.080;2023-07-29T16:00:32;1.13;;;0.35;;
76433;SDS011;65265;53.200;6.080;2023-07-29T16:10:16;3.90;;;0.57;;
76433;SDS011;65265;53.200;6.080;2023-07-29T16:15:08;1.42;;;0.15;;
76433;SDS011;65265;53.200;6.080;2023-07-29T16:20:01;1.45;;;0.22;;
76433;SDS011;65265;53.200;6.080;2023-07-29T16:24:55;2.25;;;0.20;;
76433;SDS011;65265;53.200;6.080;2023-07-29T16:29:47;1.45;;;0.30;;
76433;SDS011;65265;53.200;6.080;2023-07-29T16:34:38;2.15;;;0.13;;
76433;SDS011;65265;53.200;6.080;2023-07-29T16:44:22;1.63;;;0.13;;
76433;SDS011;65265;53.200;6.080;2023-07-29T16:49:14;2.00;;;0.22;;
76433;SDS011;65265;53.200;6.080;2023-07-29T16:58:57;1.27;;;0.28;;
76433;SDS011;65265;53.200;6.080;2023-07-29T17:03:49;3.05;;;0.10;;
76433;SDS011;65265;53.200;6.080;2023-07-29T17:08:41;2.13;;;0.03;;
76433;SDS011;65265;53.200;6.080;2023-07-29T17:13:33;4.30;;;0.10;;
76433;SDS011;65265;53.200;6.080;2023-07-29T17:18:24;0.60;;;0.08;;
76433;SDS011;65265;53.200;6.080;2023-07-29T17:23:18;1.95;;;0.30;;
76433;SDS011;65265;53.200;6.080;2023-07-29T17:28:09;1.25;;;0.13;;
76433;SDS011;65265;53.200;6.080;2023-07-29T17:33:01;1.05;;;0.08;;
76433;SDS011;65265;53.200;6.080;2023-07-29T17:37:53;1.88;;;0.20;;
76433;SDS011;65265;53.200;6.080;2023-07-29T17:42:46;0.88;;;0.20;;
76433;SDS011;65265;53.200;6.080;2023-07-29T17:47:37;1.77;;;0.43;;
76433;SDS011;65265;53.200;6.080;2023-07-29T17:52:29;1.85;;;0.05;;
76433;SDS011;65265;53.200;6.080;2023-07-29T17:57:20;5.80;;;0.35;;
76433;SDS011;65265;53.200;6.080;2023-07-29T18:02:13;3.83;;;0.47;;
76433;SDS011;65265;53.200;6.080;2023-07-29T18:07:04;3.13;;;0.40;;
76433;SDS011;65265;53.200;6.080;2023-07-29T18:11:56;3.50;;;0.35;;
76433;SDS011;65265;53.200;6.080;2023-07-29T18:16:51;2.38;;;0.25;;
76433;SDS011;65265;53.200;6.080;2023-07-29T18:21:44;3.97;;;0.40;;
76433;SDS011;65265;53.200;6.080;2023-07-29T18:26:35;2.47;;;0.32;;
76433;SDS011;65265;53.200;6.080;2023-07-29T18:31:26;2.80;;;0.65;;
76433;SDS011;65265;53.200;6.080;2023-07-29T18:36:18;2.67;;;0.50;;
76433;SDS011;65265;53.200;6.080;2023-07-29T18:41:11;1.95;;;0.35;;
76433;SDS011;65265;53.200;6.080;2023-07-29T18:46:02;1.95;;;0.60;;
76433;SDS011;65265;53.200;6.080;2023-07-29T18:50:53;2.40;;;0.73;;
76433;SDS011;65265;53.200;6.080;2023-07-29T18:55:45;1.90;;;0.30;;
76433;SDS011;65265;53.200;6.080;2023-07-29T19:00:38;1.45;;;0.28;;
76433;SDS011;65265;53.200;6.080;2023-07-29T19:05:30;2.17;;;0.28;;
76433;SDS011;65265;53.200;6.080;2023-07-29T19:10:21;2.53;;;0.47;;
76433;SDS011;65265;53.200;6.080;2023-07-29T19:15:13;2.30;;;0.32;;
76433;SDS011;65265;53.200;6.080;2023-07-29T19:20:07;2.17;;;0.25;;
76433;SDS011;65265;53.200;6.080;2023-07-29T19:24:59;2.45;;;0.45;;
76433;SDS011;65265;53.200;6.080;2023-07-29T19:29:50;1.58;;;0.60;;
76433;SDS011;65265;53.200;6.080;2023-07-29T19:34:42;2.47;;;0.98;;
76433;SDS011;65265;53.200;6.080;2023-07-29T19:39:35;1.25;;;0.65;;
76433;SDS011;65265;53.200;6.080;2023-07-29T19:44:27;1.80;;;0.55;;
76433;SDS011;65265;53.200;6.080;2023-07-29T19:49:18;1.05;;;0.25;;
76433;SDS011;65265;53.200;6.080;2023-07-29T19:54:10;1.60;;;0.88;;
76433;SDS011;65265;53.200;6.080;2023-07-29T19:59:03;1.80;;;0.50;;
76433;SDS011;65265;53.200;6.080;2023-07-29T20:03:54;2.63;;;1.02;;
76433;SDS011;65265;53.200;6.080;2023-07-29T20:08:45;2.08;;;0.60;;
76433;SDS011;65265;53.200;6.080;2023-07-29T20:13:38;3.83;;;1.63;;
76433;SDS011;65265;53.200;6.080;2023-07-29T20:18:30;3.85;;;1.55;;
76433;SDS011;65265;53.200;6.080;2023-07-29T20:23:22;3.50;;;0.90;;
76433;SDS011;65265;53.200;6.080;2023-07-29T20:28:14;2.15;;;1.02;;
76433;SDS011;65265;53.200;6.080;2023-07-29T20:33:05;2.28;;;1.42;;
76433;SDS011;65265;53.200;6.080;2023-07-29T20:37:58;6.47;;;2.60;;
76433;SDS011;65265;53.200;6.080;2023-07-29T20:42:50;8.23;;;1.92;;
76433;SDS011;65265;53.200;6.080;2023-07-29T20:47:41;5.90;;;2.35;;
76433;SDS011;65265;53.200;6.080;2023-07-29T20:52:33;6.85;;;2.35;;
76433;SDS011;65265;53.200;6.080;2023-07-29T21:02:17;5.28;;;2.53;;
76433;SDS011;65265;53.200;6.080;2023-07-29T21:07:09;6.43;;;2.70;;
76433;SDS011;65265;53.200;6.080;2023-07-29T21:12:00;10.65;;;2.53;;
76433;SDS011;65265;53.200;6.080;2023-07-29T21:16:53;8.23;;;3.13;;
76433;SDS011;65265;53.200;6.080;2023-07-29T21:21:45;5.28;;;2.75;;
76433;SDS011;65265;53.200;6.080;2023-07-29T21:26:36;7.90;;;2.63;;
76433;SDS011;65265;53.200;6.080;2023-07-29T21:31:28;7.90;;;2.60;;
76433;SDS011;65265;53.200;6.080;2023-07-29T21:36:21;9.55;;;2.20;;
76433;SDS011;65265;53.200;6.080;2023-07-29T21:41:13;10.95;;;3.38;;
76433;SDS011;65265;53.200;6.080;2023-07-29T21:46:04;6.10;;;2.30;;
76433;SDS011;65265;53.200;6.080;2023-07-29T21:50:58;9.73;;;3.03;;
76433;SDS011;65265;53.200;6.080;2023-07-29T21:55:50;6.15;;;2.92;;
76433;SDS011;65265;53.200;6.080;2023-07-29T22:00:42;6.45;;;2.28;;
76433;SDS011;65265;53.200;6.080;2023-07-29T22:05:34;8.30;;;2.55;;
76433;SDS011;65265;53.200;6.080;2023-07-29T22:10:25;8.65;;;2.70;;
76433;SDS011;65265;53.200;6.080;2023-07-29T22:15:18;7.10;;;2.92;;
76433;SDS011;65265;53.200;6.080;2023-07-29T22:20:10;6.97;;;2.55;;
76433;SDS011;65265;53.200;6.080;2023-07-29T22:25:02;11.68;;;3.05;;
76433;SDS011;65265;53.200;6.080;2023-07-29T22:29:54;8.73;;;2.65;;
76433;SDS011;65265;53.200;6.080;2023-07-29T22:34:47;11.18;;;2.78;;
76433;SDS011;65265;53.200;6.080;2023-07-29T22:39:39;9.20;;;2.75;;
76433;SDS011;65265;53.200;6.080;2023-07-29T22:44:33;15.15;;;4.35;;
76433;SDS011;65265;53.200;6.080;2023-07-29T22:49:24;13.68;;;4.40;;
76433;SDS011;65265;53.200;6.080;2023-07-29T22:54:17;13.15;;;3.80;;
76433;SDS011;65265;53.200;6.080;2023-07-29T22:59:08;9.30;;;3.20;;
76433;SDS011;65265;53.200;6.080;2023-07-29T23:04:00;11.43;;;2.70;;
76433;SDS011;65265;53.200;6.080;2023-07-29T23:08:51;12.50;;;3.65;;
76433;SDS011;65265;53.200;6.080;2023-07-29T23:13:44;12.38;;;3.83;;
76433;SDS011;65265;53.200;6.080;2023-07-29T23:18:36;11.55;;;3.70;;
76433;SDS011;65265;53.200;6.080;2023-07-29T23:23:27;11.05;;;4.55;;
76433;SDS011;65265;53.200;6.080;2023-07-29T23:28:19;15.73;;;3.80;;
76433;SDS011;65265;53.200;6.080;2023-07-29T23:33:12;10.90;;;3.80;;
76433;SDS011;65265;53.200;6.080;2023-07-29T23:38:03;14.45;;;3.40;;
76433;SDS011;65265;53.200;6.080;2023-07-29T23:42:55;16.00;;;3.60;;
76433;SDS011;65265;53.200;6.080;2023-07-29T23:47:46;12.00;;;3.90;;
76433;SDS011;65265;53.200;6.080;2023-07-29T23:52:39;10.52;;;3.22;;
76433;SDS011;65265;53.200;6.080;2023-07-29T23:57:31;12.00;;;2.92;;
